메인 페이지
METAR-TAF:

METAR-TAF

공항 :

밀튼, 매사추세츠, 미국

위도: 42-12-44N, 경도: 071-06-53W, 고도: 192m

현재 날씨관측

예보는 15 시간 27분 전, 15:56시(UTC)에 발표되었습니다.
동북동9kt, 순간 최대 풍속 17kt
온도 14°C
습도 72%
기압 1019 hPa

METAR: KMQE 211556Z AUTO 06009G17KT 14/09 A3008 RMK AO1 SLP198 T01440089

시각: 03:23 (07:23 UTC)


TAF: 누락

4,000개 이상의 공항 관측 자료 및 예보 (METAR 및 TAF 보고).

지도상에서 검색 가능한 기상관측소가 노란 점과 빨간 점으로 표시되어 있습니다.

기상관측소 명을 보려면 표시 위로 마우스를 이동하세요.

날씨 관측과 예보를 보려면 클릭하세요.

지도 변경 : 확대하려면 엑스 표시가 있는 녹색 버튼, 축소하려면 빼기 표시가 있는 녹색 버튼, 다음 페이지의 지도를 보려면 녹색 화살표를 클릭하세요.


METAR-TAF: